Atlanta, GA (30379)

7:29 AM EDT on July 29, 2016 (GMT -0400)
Midtown | | Change Station

Elev 951 ft 33.78 °N, 84.38 °W | Updated 2 minutes ago

Clear
Clear
73.6 °F
Feels Like 72 °F
N
1.9
Wind Variable Wind from WNW

Today
High -- | Low -- °F
--% Chance of Precip.
Yesterday
High -- | Low -- °F
Precip. -- in
Pressure 30.01 in
Visibility 9.0 miles
Clouds Clear
Heat Index 72 °F
Dew Point 70 °F
Humidity 90%
Rainfall Not available.
Snow Depth Not available.
6:47 AM 8:39 PM
Waning Crescent, 23% visible
METAR KFTY 291053Z 21004KT 9SM CLR 23/21 A3004 RMK AO2 SLP160 T02280206
Pressure 30.01 in
Visibility 9.0 miles
Clouds Clear
Heat Index 72 °F
Dew Point 70 °F
Humidity 90%
Rainfall Not available.
Snow Depth Not available.
6:47 AM 8:39 PM
Waning Crescent, 23% visible
METAR KFTY 291053Z 21004KT 9SM CLR 23/21 A3004 RMK AO2 SLP160 T02280206

10-Day Weather Forecast

Almanac

Astronomy

Jul. 29, 2016 Rise Set
Actual Time
Civil Twilight
Nautical Twilight
Astronomical Twilight
Moon
Length of Visible Light
Length of Day
Tomorrow will be .
, % of the Moon is Illuminated

Today's Extremes

State Highs State Lows

Community

WunderPhotos

Upload Photos

1,928,312 photos uploaded!

WunderBlog® & News

Nearby

Air Quality

  Air Quality AQ Index Pollutant
Not available.

Snow Depth

Station Depth Elevation

Earthquake Activity

City Distance Mag. Time & Date
Minimum magnitude displayed is 2.5.

Coastal Water Temperatures

Place Temperature

Stations

Nearby Weather Stations

Station Location Temp. Windchill Dew Point Humidity Wind Precip. Elev Updated Type
                   

Watches & Warnings

There are currently no watches in effect.